Time;durP1;ratioP1;P1;durP2;ratioP2;P2;SDS_P1;SDS_P2;PMS_P1;PMS_P2;Temp;Humidity;BMP_temperature;BMP_pressure;BME280_temperature;BME280_humidity;BME280_pressure;Samples;Min_cycle;Max_cycle;Signal;HPM_P1;HPM_P2
2023/04/02 00:00:19;;;;;;;3.22;1.92;;;3.80;99.90;;;;;;5034949;28;20233;-71
2023/04/02 00:02:55;;;;;;;6.35;2.50;;;3.80;99.90;;;;;;5038524;28;20566;-71
2023/04/02 00:05:54;;;;;;;7.00;2.55;;;3.80;99.90;;;;;;5018110;28;20291;-70
2023/04/02 00:08:29;;;;;;;6.70;2.15;;;3.70;99.90;;;;;;5034576;28;20631;-70
2023/04/02 00:10:59;;;;;;;8.10;2.35;;;3.70;99.90;;;;;;5037816;28;20261;-70
2023/04/02 00:13:33;;;;;;;9.85;2.90;;;3.70;99.90;;;;;;5045437;28;20254;-69
2023/04/02 00:16:02;;;;;;;4.78;2.00;;;3.70;99.90;;;;;;5034722;28;20283;-71
2023/04/02 00:18:32;;;;;;;8.98;2.30;;;3.70;99.90;;;;;;5034825;28;20203;-70
2023/04/02 00:21:09;;;;;;;5.47;2.10;;;3.60;99.90;;;;;;5036334;28;20288;-71
2023/04/02 00:23:37;;;;;;;6.25;2.20;;;3.60;99.90;;;;;;5024398;28;20234;-70
2023/04/02 00:26:20;;;;;;;5.72;1.77;;;3.60;99.90;;;;;;5034541;28;20204;-71
2023/04/02 00:28:47;;;;;;;6.18;2.83;;;3.60;99.90;;;;;;5046691;28;20198;-69
2023/04/02 00:31:14;;;;;;;6.15;2.53;;;3.50;99.90;;;;;;5033496;28;20298;-70
2023/04/02 00:33:43;;;;;;;4.32;2.50;;;3.50;99.90;;;;;;5033946;28;20322;-71
2023/04/02 00:36:10;;;;;;;7.65;2.35;;;3.60;99.90;;;;;;5035071;28;20200;-70
2023/04/02 00:38:42;;;;;;;6.80;2.42;;;3.60;99.90;;;;;;5036073;28;20204;-70
2023/04/02 00:41:14;;;;;;;2.88;1.70;;;3.60;99.90;;;;;;5051553;28;20242;-70
2023/04/02 00:43:46;;;;;;;4.75;2.20;;;3.50;99.90;;;;;;5046450;28;20311;-70
2023/04/02 00:46:16;;;;;;;5.63;1.85;;;3.50;99.90;;;;;;5044083;28;20199;-71
2023/04/02 00:48:50;;;;;;;5.63;1.90;;;3.50;99.90;;;;;;5048429;28;20286;-70
2023/04/02 00:51:22;;;;;;;7.43;2.67;;;3.50;99.90;;;;;;5042025;28;20269;-71
2023/04/02 00:53:52;;;;;;;4.00;2.10;;;3.60;99.90;;;;;;5045690;28;20306;-72
2023/04/02 00:56:25;;;;;;;3.30;2.15;;;3.40;99.90;;;;;;5049137;28;20192;-71
2023/04/02 00:58:55;;;;;;;2.40;2.13;;;3.30;99.90;;;;;;5046670;28;20192;-70
2023/04/02 01:01:26;;;;;;;7.63;2.25;;;3.40;99.90;;;;;;5042675;28;20272;-71
2023/04/02 01:03:57;;;;;;;9.20;1.98;;;3.40;99.90;;;;;;5042832;28;21157;-70
2023/04/02 01:06:30;;;;;;;4.68;2.17;;;3.40;99.90;;;;;;5043367;28;20260;-70
2023/04/02 01:09:23;;;;;;;5.18;2.38;;;3.40;99.90;;;;;;5035910;28;20200;-70
2023/04/02 01:12:30;;;;;;;5.45;2.22;;;3.40;99.90;;;;;;5038694;28;20779;-70
2023/04/02 01:15:06;;;;;;;9.85;2.20;;;3.40;99.90;;;;;;4996596;28;20287;-69
2023/04/02 01:17:47;;;;;;;3.45;1.70;;;3.40;99.90;;;;;;5023284;28;20195;-70
2023/04/02 01:20:34;;;;;;;7.38;2.67;;;3.30;99.90;;;;;;5030604;28;20201;-70
2023/04/02 01:23:06;;;;;;;3.70;2.05;;;3.30;99.90;;;;;;5041648;28;20310;-70
2023/04/02 01:25:41;;;;;;;6.72;2.30;;;3.30;99.90;;;;;;5042573;28;20199;-70
2023/04/02 01:28:18;;;;;;;3.25;2.22;;;3.30;99.90;;;;;;5041579;28;20258;-70
2023/04/02 01:30:52;;;;;;;6.32;2.60;;;3.20;99.90;;;;;;5021822;28;20212;-70
2023/04/02 01:33:20;;;;;;;4.25;1.98;;;3.30;99.90;;;;;;5039089;28;20224;-71
2023/04/02 01:35:53;;;;;;;6.40;2.53;;;3.30;99.90;;;;;;5039633;28;20230;-68
2023/04/02 01:38:26;;;;;;;9.00;1.90;;;3.30;99.90;;;;;;5050026;28;20214;-69
2023/04/02 01:41:01;;;;;;;8.75;2.47;;;3.30;99.90;;;;;;5048634;28;20204;-69
2023/04/02 01:43:34;;;;;;;9.10;2.40;;;3.30;99.90;;;;;;5034024;28;20301;-70
2023/04/02 01:46:24;;;;;;;2.22;1.70;;;3.40;99.90;;;;;;5023137;28;20203;-71
2023/04/02 01:48:52;;;;;;;4.82;3.35;;;3.40;99.90;;;;;;5033407;28;20607;-71
2023/04/02 01:51:27;;;;;;;4.68;1.67;;;3.50;99.90;;;;;;5040650;28;20340;-71
2023/04/02 01:53:55;;;;;;;5.15;2.40;;;3.50;99.90;;;;;;5047112;28;20310;-69
2023/04/02 01:56:22;;;;;;;6.82;2.22;;;3.50;99.90;;;;;;5038901;28;20206;-69
2023/04/02 01:58:50;;;;;;;9.13;2.17;;;3.50;99.90;;;;;;5047429;28;20196;-70
2023/04/02 02:01:21;;;;;;;5.05;2.30;;;3.50;99.90;;;;;;5036903;28;20286;-70
2023/04/02 02:03:50;;;;;;;3.42;2.35;;;3.40;99.90;;;;;;5046933;28;20282;-70
2023/04/02 02:06:18;;;;;;;11.73;4.00;;;3.40;99.90;;;;;;5048936;28;20202;-70
2023/04/02 02:08:48;;;;;;;4.57;1.70;;;3.40;99.90;;;;;;5035500;28;20208;-70
2023/04/02 02:11:18;;;;;;;5.22;2.33;;;3.40;99.90;;;;;;5041955;28;20223;-71
2023/04/02 02:13:51;;;;;;;5.65;2.30;;;3.30;99.90;;;;;;5044855;28;20299;-71
2023/04/02 02:16:20;;;;;;;2.35;1.63;;;3.30;99.90;;;;;;5041753;28;20664;-70
2023/04/02 02:18:49;;;;;;;10.05;2.70;;;3.30;99.90;;;;;;5050452;28;20289;-71
2023/04/02 02:21:29;;;;;;;3.38;1.80;;;3.30;99.90;;;;;;5047883;28;20203;-71
2023/04/02 02:23:57;;;;;;;5.15;2.03;;;3.30;99.90;;;;;;5044607;28;20223;-70
2023/04/02 02:26:26;;;;;;;9.63;1.90;;;3.40;99.90;;;;;;5046901;28;20221;-70
2023/04/02 02:28:57;;;;;;;5.28;2.25;;;3.40;99.90;;;;;;5039287;28;20216;-70
2023/04/02 02:31:32;;;;;;;4.80;1.95;;;3.40;99.90;;;;;;5043689;28;20208;-71
2023/04/02 02:34:02;;;;;;;3.92;1.92;;;3.40;99.90;;;;;;5027564;28;20219;-70
2023/04/02 02:36:33;;;;;;;2.97;1.35;;;3.40;99.90;;;;;;5053345;28;20286;-70
2023/04/02 02:39:05;;;;;;;4.75;1.90;;;3.40;99.90;;;;;;5041270;28;20196;-71
2023/04/02 02:41:40;;;;;;;6.25;2.10;;;3.40;99.90;;;;;;5052378;28;20598;-70
2023/04/02 02:44:14;;;;;;;6.40;2.58;;;3.30;99.90;;;;;;5043907;28;20316;-70
2023/04/02 02:46:47;;;;;;;7.47;2.17;;;3.20;99.90;;;;;;5033460;28;20317;-71
2023/04/02 02:49:17;;;;;;;3.58;1.60;;;3.20;99.90;;;;;;5020542;28;20227;-71
2023/04/02 02:51:47;;;;;;;4.72;2.03;;;3.20;99.90;;;;;;5048763;28;20322;-71
2023/04/02 02:54:17;;;;;;;8.27;3.70;;;3.20;99.90;;;;;;5044141;28;20238;-70
2023/04/02 02:56:48;;;;;;;4.90;2.33;;;3.20;99.90;;;;;;5046441;28;20299;-70
2023/04/02 02:59:16;;;;;;;7.40;2.40;;;3.20;99.90;;;;;;5036427;28;20293;-71
2023/04/02 03:01:46;;;;;;;10.15;2.25;;;3.10;99.90;;;;;;5036547;28;20200;-70
2023/04/02 03:04:13;;;;;;;1.42;1.33;;;3.10;99.90;;;;;;5047248;28;20228;-69
2023/04/02 03:06:41;;;;;;;5.53;2.00;;;2.90;99.90;;;;;;5041890;28;20211;-69
2023/04/02 03:09:18;;;;;;;3.60;1.45;;;2.90;99.90;;;;;;5046437;28;20284;-70
2023/04/02 03:11:50;;;;;;;3.40;1.83;;;2.90;99.90;;;;;;5035745;28;20272;-70
2023/04/02 03:14:24;;;;;;;3.25;1.63;;;2.90;99.90;;;;;;5049878;28;20661;-68
2023/04/02 03:17:00;;;;;;;3.95;1.50;;;2.80;99.90;;;;;;5054161;28;20290;-70
2023/04/02 03:19:34;;;;;;;6.57;2.17;;;2.70;99.90;;;;;;5037578;28;20226;-69
2023/04/02 03:22:08;;;;;;;5.10;2.25;;;2.70;99.90;;;;;;5029892;28;20306;-70
2023/04/02 03:24:41;;;;;;;8.43;2.67;;;2.60;99.90;;;;;;5034464;28;20207;-69
2023/04/02 03:27:13;;;;;;;4.70;1.85;;;2.70;99.90;;;;;;5036129;28;20593;-70
2023/04/02 03:29:43;;;;;;;8.63;2.00;;;2.70;99.90;;;;;;5044475;28;20206;-70
2023/04/02 03:32:17;;;;;;;6.40;2.80;;;2.60;99.90;;;;;;5036924;28;20311;-68
2023/04/02 03:34:49;;;;;;;4.47;1.95;;;2.50;99.90;;;;;;5033272;28;20214;-70
2023/04/02 03:37:22;;;;;;;4.93;1.80;;;2.60;99.90;;;;;;5042684;28;20215;-71
2023/04/02 03:39:54;;;;;;;9.35;3.10;;;2.50;99.90;;;;;;5041826;28;20283;-69
2023/04/02 03:42:24;;;;;;;4.40;1.30;;;2.50;99.90;;;;;;5040751;28;20227;-70
2023/04/02 03:44:55;;;;;;;3.38;1.75;;;2.50;99.90;;;;;;5044013;28;20199;-70
2023/04/02 03:47:31;;;;;;;4.38;1.55;;;2.60;99.90;;;;;;5042613;28;20291;-70
2023/04/02 03:50:02;;;;;;;4.32;1.85;;;2.60;99.90;;;;;;5045202;28;20290;-70
2023/04/02 03:52:30;;;;;;;6.35;1.92;;;2.50;99.90;;;;;;5040491;28;20233;-70
2023/04/02 03:55:00;;;;;;;6.72;2.20;;;2.50;99.90;;;;;;5044502;28;20677;-69
2023/04/02 03:57:31;;;;;;;3.20;1.83;;;2.50;99.90;;;;;;5046361;28;20370;-69
2023/04/02 04:00:05;;;;;;;2.83;1.50;;;2.50;99.90;;;;;;5041978;28;20245;-69
2023/04/02 04:02:42;;;;;;;4.03;1.60;;;2.60;99.90;;;;;;5047093;28;20216;-70
2023/04/02 04:05:22;;;;;;;8.32;2.10;;;2.60;99.90;;;;;;5025118;28;20211;-70
2023/04/02 04:07:53;;;;;;;2.58;1.35;;;2.60;99.90;;;;;;5020050;28;20248;-71
2023/04/02 04:10:25;;;;;;;11.65;2.03;;;2.60;99.90;;;;;;5037678;28;20202;-71
2023/04/02 04:12:55;;;;;;;6.78;1.70;;;2.60;99.90;;;;;;5038295;28;20242;-70
2023/04/02 04:15:26;;;;;;;8.43;2.50;;;2.60;99.90;;;;;;5042532;28;20196;-70
2023/04/02 04:18:01;;;;;;;3.78;1.48;;;2.60;99.90;;;;;;5037712;28;20283;-70
2023/04/02 04:20:34;;;;;;;4.53;1.40;;;2.50;99.90;;;;;;5038453;28;20563;-70
2023/04/02 04:23:17;;;;;;;1.50;1.23;;;2.50;99.90;;;;;;5041461;28;20235;-70
2023/04/02 04:25:44;;;;;;;6.95;1.95;;;2.50;99.90;;;;;;5040216;28;20199;-69
2023/04/02 04:28:23;;;;;;;2.65;1.30;;;2.50;99.90;;;;;;5035712;28;20303;-71
2023/04/02 04:30:53;;;;;;;5.63;1.45;;;2.60;99.90;;;;;;5035662;28;20294;-70
2023/04/02 04:33:24;;;;;;;2.85;1.40;;;2.60;99.90;;;;;;5039525;28;20262;-70
2023/04/02 04:35:56;;;;;;;3.13;1.58;;;2.70;99.90;;;;;;5042128;28;20235;-70
2023/04/02 04:38:31;;;;;;;6.85;2.25;;;2.70;99.90;;;;;;5043142;28;20216;-70
2023/04/02 04:41:03;;;;;;;8.70;1.70;;;2.70;99.90;;;;;;5022221;28;20200;-69
2023/04/02 04:43:37;;;;;;;2.75;2.00;;;2.60;99.90;;;;;;5039841;28;20273;-70
2023/04/02 04:46:09;;;;;;;4.18;2.10;;;2.70;99.90;;;;;;5035877;28;20222;-70
2023/04/02 04:48:45;;;;;;;5.85;2.10;;;2.60;99.90;;;;;;5035131;28;20215;-70
2023/04/02 04:51:20;;;;;;;7.70;1.98;;;2.70;99.90;;;;;;5040022;28;20205;-70
2023/04/02 04:53:49;;;;;;;7.50;1.55;;;2.60;99.90;;;;;;5044449;28;20227;-70
2023/04/02 04:56:20;;;;;;;6.45;1.67;;;2.60;99.90;;;;;;5036073;28;20217;-70
2023/04/02 04:58:51;;;;;;;4.70;1.50;;;2.50;99.90;;;;;;5038619;28;20196;-70
2023/04/02 05:01:23;;;;;;;3.83;2.10;;;2.50;99.90;;;;;;5044815;28;20207;-70
2023/04/02 05:03:58;;;;;;;3.22;2.20;;;2.50;99.90;;;;;;5042553;28;20223;-70
2023/04/02 05:06:36;;;;;;;5.53;2.13;;;2.50;99.90;;;;;;5028002;28;20596;-70
2023/04/02 05:09:10;;;;;;;5.35;2.30;;;2.50;99.90;;;;;;5039625;28;20730;-71
2023/04/02 05:11:43;;;;;;;8.38;1.80;;;2.50;99.90;;;;;;5023365;28;20940;-71
2023/04/02 05:14:18;;;;;;;9.35;2.80;;;2.60;99.90;;;;;;5049233;28;20639;-69
2023/04/02 05:16:51;;;;;;;8.38;2.33;;;2.60;99.90;;;;;;5037207;28;20650;-70
2023/04/02 05:19:25;;;;;;;4.97;1.40;;;2.70;99.90;;;;;;5017181;28;20275;-70
2023/04/02 05:21:58;;;;;;;3.05;1.30;;;2.70;99.90;;;;;;5022764;28;20639;-70
2023/04/02 05:24:44;;;;;;;5.50;1.65;;;2.80;99.90;;;;;;5024413;28;20303;-72
2023/04/02 05:27:26;;;;;;;4.13;1.42;;;2.90;99.90;;;;;;5042650;28;20211;-71
2023/04/02 05:29:59;;;;;;;2.28;1.30;;;3.00;99.90;;;;;;5038925;28;20215;-70
2023/04/02 05:32:30;;;;;;;4.20;1.73;;;3.10;99.90;;;;;;5042033;28;20915;-71
2023/04/02 05:34:59;;;;;;;3.50;1.80;;;3.20;99.90;;;;;;5040597;28;20698;-71
2023/04/02 05:37:30;;;;;;;3.25;1.55;;;3.30;99.90;;;;;;5039011;28;20204;-70
2023/04/02 05:39:58;;;;;;;8.60;2.40;;;3.30;99.90;;;;;;5040363;28;20284;-71
2023/04/02 05:42:29;;;;;;;9.05;1.73;;;3.40;99.90;;;;;;5040293;28;20258;-72
2023/04/02 05:45:06;;;;;;;3.80;1.65;;;3.40;99.90;;;;;;5048595;28;20301;-73
2023/04/02 05:47:39;;;;;;;3.10;1.55;;;3.50;99.90;;;;;;5049823;28;20290;-73
2023/04/02 05:50:19;;;;;;;3.30;1.65;;;3.50;99.90;;;;;;5041870;28;20240;-72
2023/04/02 05:52:50;;;;;;;4.70;1.40;;;3.60;99.90;;;;;;5043686;28;20255;-72
2023/04/02 05:55:37;;;;;;;9.75;1.83;;;3.70;99.90;;;;;;5045276;28;20666;-70
2023/04/02 05:58:07;;;;;;;3.55;1.92;;;3.70;99.90;;;;;;5044780;28;20199;-71
2023/04/02 06:01:00;;;;;;;6.85;1.70;;;3.70;99.90;;;;;;5057140;28;20207;-72
2023/04/02 06:03:38;;;;;;;4.45;1.50;;;3.90;99.90;;;;;;5063938;28;20243;-72
2023/04/02 06:06:17;;;;;;;3.05;1.63;;;4.00;99.90;;;;;;5066318;28;20222;-70
2023/04/02 06:08:52;;;;;;;4.55;1.92;;;4.10;99.90;;;;;;5053378;28;20211;-72
2023/04/02 06:11:23;;;;;;;7.80;2.22;;;4.10;99.90;;;;;;5057243;28;20280;-70
2023/04/02 06:13:52;;;;;;;5.38;2.30;;;4.20;99.90;;;;;;5054170;28;20219;-72
2023/04/02 06:16:23;;;;;;;5.40;1.98;;;4.30;99.90;;;;;;5042893;28;20672;-70
2023/04/02 06:18:50;;;;;;;2.33;1.63;;;4.30;99.90;;;;;;5050303;28;20188;-70
2023/04/02 06:21:20;;;;;;;6.03;1.15;;;4.40;99.90;;;;;;5044166;28;20196;-72
2023/04/02 06:23:53;;;;;;;5.45;2.28;;;4.50;99.90;;;;;;5053620;28;20980;-72
2023/04/02 06:26:27;;;;;;;2.88;1.00;;;4.60;99.90;;;;;;5043568;28;20202;-71
2023/04/02 06:29:00;;;;;;;5.72;1.40;;;4.70;99.90;;;;;;5026148;28;20728;-73
2023/04/02 06:31:35;;;;;;;3.63;1.58;;;4.70;99.90;;;;;;5053514;28;20214;-72
2023/04/02 06:34:05;;;;;;;4.35;1.27;;;4.80;99.90;;;;;;5049358;28;20230;-73
2023/04/02 06:36:35;;;;;;;1.85;1.02;;;4.90;99.90;;;;;;5043562;28;20203;-73
2023/04/02 06:39:07;;;;;;;9.00;2.17;;;5.00;99.90;;;;;;5048633;28;20628;-72
2023/04/02 06:41:35;;;;;;;12.90;2.55;;;5.10;99.90;;;;;;5048868;28;20602;-71
2023/04/02 06:44:07;;;;;;;3.28;1.25;;;5.20;99.90;;;;;;5043409;28;20227;-72
2023/04/02 06:46:38;;;;;;;3.03;1.17;;;5.30;99.90;;;;;;5048355;28;20278;-72
2023/04/02 06:49:16;;;;;;;2.05;1.50;;;5.30;99.90;;;;;;5041807;28;20209;-72
2023/04/02 06:51:46;;;;;;;2.85;1.00;;;5.30;99.90;;;;;;5030691;28;20210;-69
2023/04/02 06:54:15;;;;;;;3.17;1.10;;;5.40;99.90;;;;;;5044181;28;20226;-73
2023/04/02 06:56:45;;;;;;;2.45;1.30;;;5.60;99.90;;;;;;5043355;28;20226;-72
2023/04/02 06:59:12;;;;;;;5.28;1.40;;;5.70;99.90;;;;;;5039865;28;20293;-73
2023/04/02 07:01:44;;;;;;;3.33;1.33;;;5.80;99.90;;;;;;5050944;28;20208;-72
2023/04/02 07:04:12;;;;;;;5.18;1.40;;;5.90;99.90;;;;;;5053999;28;20239;-72
2023/04/02 07:06:40;;;;;;;3.83;1.60;;;6.10;99.90;;;;;;5048467;28;20214;-73
2023/04/02 07:09:09;;;;;;;3.85;1.30;;;6.40;99.90;;;;;;5050219;28;20230;-76
2023/04/02 07:11:36;;;;;;;5.22;1.30;;;6.60;99.90;;;;;;5043939;28;20212;-73
2023/04/02 07:14:05;;;;;;;6.72;1.80;;;6.90;99.90;;;;;;5048905;28;20228;-74
2023/04/02 07:16:33;;;;;;;3.33;1.20;;;7.40;99.90;;;;;;5040874;28;20239;-75
2023/04/02 07:19:02;;;;;;;5.30;1.75;;;8.10;99.90;;;;;;5045527;28;20191;-76
2023/04/02 07:21:30;;;;;;;3.03;0.85;;;8.30;99.90;;;;;;5048731;28;20275;-75
2023/04/02 07:23:58;;;;;;;2.65;1.20;;;8.70;99.90;;;;;;5048282;28;20227;-75
2023/04/02 07:26:27;;;;;;;4.03;1.20;;;8.40;97.60;;;;;;5039410;28;20288;-76
2023/04/02 07:28:55;;;;;;;3.92;1.30;;;8.10;98.00;;;;;;5040289;28;20748;-75
2023/04/02 07:31:24;;;;;;;3.97;1.48;;;8.30;97.70;;;;;;5035390;28;20215;-75
2023/04/02 07:33:52;;;;;;;4.57;1.40;;;8.60;96.90;;;;;;5044441;28;20224;-73
2023/04/02 07:36:21;;;;;;;4.20;1.40;;;8.60;96.70;;;;;;5038566;28;20204;-71
2023/04/02 07:38:49;;;;;;;2.03;1.23;;;8.40;95.70;;;;;;5043238;28;20239;-72
2023/04/02 07:41:16;;;;;;;3.60;1.58;;;8.60;96.40;;;;;;5040455;28;20209;-73
2023/04/02 07:43:46;;;;;;;3.30;1.02;;;9.40;94.60;;;;;;5037520;28;20232;-73
2023/04/02 07:46:15;;;;;;;2.17;1.02;;;10.00;93.50;;;;;;5044861;28;20285;-72
2023/04/02 07:48:42;;;;;;;5.75;1.55;;;10.20;92.00;;;;;;5039053;28;20216;-72
2023/04/02 07:51:21;;;;;;;2.97;1.20;;;10.80;92.20;;;;;;5040748;28;20244;-72
2023/04/02 07:53:49;;;;;;;5.43;1.17;;;11.60;90.60;;;;;;5038132;28;20301;-72
2023/04/02 07:56:19;;;;;;;6.15;1.10;;;12.20;89.20;;;;;;5041043;28;20209;-73
2023/04/02 07:58:48;;;;;;;1.45;1.00;;;13.20;85.90;;;;;;5040265;28;20687;-73
2023/04/02 08:01:18;;;;;;;3.30;1.10;;;14.30;84.00;;;;;;5045956;28;20212;-74
2023/04/02 08:03:45;;;;;;;2.65;1.20;;;15.50;81.00;;;;;;5050243;28;20235;-73
2023/04/02 08:06:12;;;;;;;3.42;1.30;;;15.50;74.90;;;;;;5036225;28;20204;-73
2023/04/02 08:08:39;;;;;;;2.90;1.65;;;15.30;76.10;;;;;;5039072;28;20207;-73
2023/04/02 08:11:06;;;;;;;5.07;1.77;;;15.10;75.90;;;;;;5035941;28;20287;-71
2023/04/02 08:13:33;;;;;;;2.28;1.27;;;15.40;74.10;;;;;;5047344;28;20253;-73
2023/04/02 08:16:02;;;;;;;3.50;1.05;;;15.40;73.40;;;;;;5044781;28;20201;-72
2023/04/02 08:18:30;;;;;;;4.20;1.63;;;14.90;73.50;;;;;;5040303;28;20265;-73
2023/04/02 08:20:58;;;;;;;1.87;1.10;;;15.30;74.40;;;;;;5045291;28;20987;-73
2023/04/02 08:23:26;;;;;;;5.90;2.63;;;15.50;72.40;;;;;;5042678;28;21055;-73
2023/04/02 08:25:54;;;;;;;3.07;1.10;;;15.40;73.30;;;;;;5045283;28;20493;-73
2023/04/02 08:28:21;;;;;;;3.92;1.40;;;15.60;72.80;;;;;;5043614;28;20433;-72
2023/04/02 08:30:48;;;;;;;3.05;1.40;;;15.50;72.30;;;;;;5043767;28;20244;-73
2023/04/02 08:33:17;;;;;;;6.67;1.23;;;15.50;73.70;;;;;;5046595;28;20421;-73
2023/04/02 08:35:44;;;;;;;3.17;1.60;;;15.00;72.90;;;;;;5041611;28;20457;-73
2023/04/02 08:38:14;;;;;;;2.03;1.10;;;15.00;72.70;;;;;;5041694;28;20819;-73
2023/04/02 08:40:44;;;;;;;4.13;1.90;;;15.00;73.40;;;;;;5035944;28;20569;-72
2023/04/02 08:43:29;;;;;;;4.13;1.67;;;15.40;73.20;;;;;;5043038;28;20495;-70
2023/04/02 08:46:07;;;;;;;4.43;1.20;;;16.10;71.70;;;;;;5041850;28;20449;-71
2023/04/02 08:48:38;;;;;;;3.60;1.20;;;15.90;71.60;;;;;;5031201;28;20532;-72
2023/04/02 08:51:07;;;;;;;4.03;1.67;;;15.90;72.10;;;;;;5043217;28;20485;-72
2023/04/02 08:53:37;;;;;;;5.60;1.03;;;16.70;70.50;;;;;;5047700;28;20476;-72
2023/04/02 08:56:16;;;;;;;1.93;0.97;;;16.70;69.40;;;;;;5039009;28;20460;-72
2023/04/02 08:58:46;;;;;;;2.20;1.40;;;17.10;68.50;;;;;;5043377;28;20453;-71
2023/04/02 09:01:25;;;;;;;2.57;1.30;;;17.00;68.70;;;;;;5044208;28;20952;-69
2023/04/02 09:03:58;;;;;;;3.07;1.23;;;17.30;68.20;;;;;;5036721;28;20469;-71
2023/04/02 09:06:26;;;;;;;3.00;1.43;;;17.20;66.90;;;;;;5042872;28;20464;-71
2023/04/02 09:08:55;;;;;;;3.07;1.67;;;16.50;67.90;;;;;;5043378;28;20445;-73
2023/04/02 09:11:24;;;;;;;2.10;1.33;;;16.90;67.70;;;;;;5041528;28;20513;-71
2023/04/02 09:13:56;;;;;;;1.80;1.20;;;16.90;68.40;;;;;;5042254;28;20494;-73
2023/04/02 09:16:37;;;;;;;3.50;1.70;;;17.30;69.10;;;;;;5037454;28;20447;-72
2023/04/02 09:19:15;;;;;;;2.40;1.40;;;17.10;67.20;;;;;;5040640;28;20444;-73
2023/04/02 09:21:46;;;;;;;3.93;1.37;;;16.20;67.50;;;;;;5039245;28;20508;-73
2023/04/02 09:24:13;;;;;;;4.40;2.30;;;16.70;68.00;;;;;;5041158;28;20564;-72
2023/04/02 09:26:40;;;;;;;5.87;1.70;;;16.60;69.00;;;;;;5035896;28;20494;-72
2023/04/02 09:29:28;;;;;;;2.83;1.50;;;17.20;67.90;;;;;;5043275;28;20833;-71
2023/04/02 09:32:06;;;;;;;3.00;1.10;;;17.30;66.50;;;;;;5034502;28;20461;-72
2023/04/02 09:34:35;;;;;;;3.13;1.37;;;17.10;66.30;;;;;;5038671;28;20430;-72
2023/04/02 09:37:08;;;;;;;3.28;1.75;;;16.20;67.80;;;;;;5040245;28;20432;-71
2023/04/02 09:39:35;;;;;;;4.85;1.80;;;15.20;68.80;;;;;;5036196;28;20210;-72
2023/04/02 09:42:07;;;;;;;3.05;1.60;;;14.50;70.50;;;;;;5044858;28;20210;-71
2023/04/02 09:44:34;;;;;;;4.03;1.98;;;14.10;71.10;;;;;;5036284;28;20204;-71
2023/04/02 09:47:04;;;;;;;3.90;1.67;;;14.50;71.50;;;;;;5034985;28;20959;-72
2023/04/02 09:49:34;;;;;;;4.00;1.50;;;13.90;70.60;;;;;;5040354;28;20211;-73
2023/04/02 09:52:20;;;;;;;2.80;1.20;;;13.30;73.20;;;;;;5041406;28;20210;-73
2023/04/02 09:55:05;;;;;;;3.15;1.48;;;13.70;72.70;;;;;;5045967;28;20394;-73
2023/04/02 09:57:32;;;;;;;4.70;1.52;;;13.60;71.90;;;;;;5034598;28;20212;-73
2023/04/02 10:00:15;;;;;;;2.28;1.33;;;14.20;71.50;;;;;;5045752;28;20228;-73
2023/04/02 10:02:43;;;;;;;2.28;1.30;;;14.20;71.60;;;;;;5040757;28;20226;-71
2023/04/02 10:05:19;;;;;;;4.03;1.70;;;14.80;70.80;;;;;;5036594;28;20653;-72
2023/04/02 10:07:47;;;;;;;4.63;1.50;;;14.40;70.80;;;;;;5047868;28;20285;-73
2023/04/02 10:10:24;;;;;;;3.42;1.52;;;14.80;71.50;;;;;;5040131;28;20222;-74
2023/04/02 10:12:58;;;;;;;2.50;1.30;;;15.00;70.60;;;;;;5040154;28;20643;-74
2023/04/02 10:15:30;;;;;;;4.78;1.45;;;15.30;70.90;;;;;;5029896;28;20288;-74
2023/04/02 10:18:05;;;;;;;3.08;1.30;;;15.30;70.70;;;;;;5037418;28;20532;-71
2023/04/02 10:20:38;;;;;;;3.78;1.52;;;14.90;71.00;;;;;;5041064;28;20198;-72
2023/04/02 10:23:05;;;;;;;2.35;1.35;;;15.20;72.80;;;;;;5038017;28;20335;-71
2023/04/02 10:25:41;;;;;;;3.47;1.30;;;15.90;71.30;;;;;;5042494;28;20671;-73
2023/04/02 10:28:15;;;;;;;2.80;1.57;;;16.10;71.00;;;;;;5021374;28;20532;-73
2023/04/02 10:30:55;;;;;;;1.70;1.30;;;15.70;70.00;;;;;;5041228;28;20566;-73
2023/04/02 10:33:31;;;;;;;2.75;1.60;;;14.60;70.40;;;;;;5040639;28;20220;-72
2023/04/02 10:36:07;;;;;;;1.90;1.70;;;13.80;72.00;;;;;;5032585;28;20207;-72
2023/04/02 10:38:42;;;;;;;2.67;1.30;;;13.20;74.10;;;;;;5026780;28;20199;-70
2023/04/02 10:41:23;;;;;;;6.57;2.17;;;12.80;75.00;;;;;;5049706;28;20202;-72
2023/04/02 10:44:22;;;;;;;3.05;1.40;;;12.20;75.90;;;;;;5050475;28;20771;-73
2023/04/02 10:47:01;;;;;;;5.25;1.30;;;12.00;77.60;;;;;;5043111;28;20249;-72
2023/04/02 10:49:36;;;;;;;3.20;2.10;;;11.80;78.10;;;;;;5044926;28;20288;-75
2023/04/02 10:52:09;;;;;;;4.72;1.75;;;12.20;77.20;;;;;;5022528;28;20657;-74
2023/04/02 10:54:42;;;;;;;3.08;1.30;;;12.20;78.50;;;;;;5046059;28;20205;-71
2023/04/02 10:57:18;;;;;;;1.75;1.27;;;12.60;77.40;;;;;;5039234;28;20210;-73
2023/04/02 10:59:51;;;;;;;1.75;1.20;;;12.60;76.90;;;;;;5042986;28;20203;-72
2023/04/02 11:02:30;;;;;;;2.28;1.65;;;12.60;77.00;;;;;;5040270;28;20261;-73
2023/04/02 11:05:01;;;;;;;2.45;1.42;;;12.40;76.40;;;;;;5051574;28;20256;-73
2023/04/02 11:07:32;;;;;;;5.82;1.45;;;12.50;78.70;;;;;;5038665;28;20214;-71
2023/04/02 11:10:00;;;;;;;3.47;1.40;;;12.90;77.60;;;;;;5044851;28;20274;-73
2023/04/02 11:12:42;;;;;;;4.80;1.60;;;13.20;77.70;;;;;;5049404;28;20226;-72
2023/04/02 11:15:15;;;;;;;2.17;1.58;;;13.70;77.30;;;;;;5047604;28;20200;-71
2023/04/02 11:17:43;;;;;;;2.55;1.30;;;13.30;76.90;;;;;;5045426;28;20725;-73
2023/04/02 11:20:43;;;;;;;1.85;1.10;;;13.30;77.70;;;;;;5047272;28;20202;-73
2023/04/02 11:23:13;;;;;;;1.95;1.58;;;13.10;77.70;;;;;;5036360;28;20776;-73
2023/04/02 11:25:41;;;;;;;3.10;1.35;;;12.70;77.70;;;;;;5051110;28;20246;-72
2023/04/02 11:28:27;;;;;;;2.75;1.30;;;12.70;77.90;;;;;;5037399;28;20208;-73
2023/04/02 11:30:55;;;;;;;3.50;1.65;;;12.70;78.40;;;;;;5040345;28;20262;-72
2023/04/02 11:33:41;;;;;;;2.13;1.50;;;12.80;78.20;;;;;;5040540;28;20247;-73
2023/04/02 11:36:42;;;;;;;2.67;1.10;;;12.30;78.00;;;;;;5042176;28;20284;-75
2023/04/02 11:39:11;;;;;;;2.08;1.35;;;12.00;79.20;;;;;;5013297;28;20608;-74
2023/04/02 11:42:21;;;;;;;3.25;1.27;;;11.80;79.60;;;;;;5046319;28;20197;-73
2023/04/02 11:44:48;;;;;;;3.78;1.70;;;11.80;80.50;;;;;;5009228;28;20650;-71
2023/04/02 11:47:18;;;;;;;2.30;1.05;;;12.10;79.40;;;;;;5040850;28;20294;-74
2023/04/02 11:50:27;;;;;;;3.40;1.20;;;12.40;79.20;;;;;;5047641;28;20298;-73
2023/04/02 11:52:59;;;;;;;7.20;1.67;;;12.50;78.50;;;;;;5006456;28;20223;-73
2023/04/02 11:55:31;;;;;;;2.67;1.10;;;12.40;78.20;;;;;;5045141;28;20203;-72
2023/04/02 11:58:31;;;;;;;1.63;1.10;;;12.20;77.60;;;;;;5041675;28;20203;-72
2023/04/02 12:01:28;;;;;;;7.35;2.03;;;12.30;78.60;;;;;;5039160;28;20202;-74
2023/04/02 12:04:38;;;;;;;3.28;1.23;;;12.10;79.10;;;;;;5040753;28;20681;-74
2023/04/02 12:07:26;;;;;;;3.75;1.38;;;11.80;79.70;;;;;;5019968;28;20199;-73
2023/04/02 12:09:56;;;;;;;1.60;1.25;;;11.90;80.80;;;;;;5046310;28;20201;-72
2023/04/02 12:12:32;;;;;;;2.75;1.27;;;11.90;80.50;;;;;;5043913;28;20272;-73
2023/04/02 12:15:00;;;;;;;3.55;1.30;;;11.90;81.40;;;;;;5040925;28;20205;-72
2023/04/02 12:17:33;;;;;;;2.40;1.20;;;11.90;79.30;;;;;;5042762;28;20249;-74
2023/04/02 12:20:06;;;;;;;3.28;2.08;;;11.80;79.40;;;;;;5041126;28;20355;-74
2023/04/02 12:22:34;;;;;;;2.40;1.30;;;11.80;78.90;;;;;;5045718;28;20233;-75
2023/04/02 12:25:18;;;;;;;3.95;1.75;;;11.70;78.40;;;;;;5043318;28;20281;-76
2023/04/02 12:27:47;;;;;;;2.47;1.20;;;11.40;78.10;;;;;;5047373;28;20632;-74
2023/04/02 12:30:18;;;;;;;5.47;1.40;;;11.30;78.30;;;;;;5043037;28;20228;-74
2023/04/02 12:32:45;;;;;;;4.18;1.42;;;11.40;79.70;;;;;;5042338;28;20240;-74
2023/04/02 12:35:35;;;;;;;3.15;0.98;;;11.60;78.50;;;;;;5042338;28;20221;-74
2023/04/02 12:38:02;;;;;;;3.53;1.30;;;11.50;78.10;;;;;;5040873;28;20313;-73
2023/04/02 12:40:29;;;;;;;5.40;2.47;;;11.40;79.00;;;;;;5040458;28;20204;-72
2023/04/02 12:42:58;;;;;;;1.70;0.90;;;11.50;79.60;;;;;;5039030;28;20590;-74
2023/04/02 12:45:27;;;;;;;2.00;1.60;;;11.40;77.80;;;;;;5049614;28;20221;-74
2023/04/02 12:47:55;;;;;;;2.75;1.20;;;11.50;78.80;;;;;;5035237;28;20202;-74
2023/04/02 12:50:23;;;;;;;1.65;1.30;;;11.60;78.00;;;;;;5043892;28;20228;-73
2023/04/02 12:52:52;;;;;;;3.88;1.50;;;11.70;77.50;;;;;;5039065;28;20596;-75
2023/04/02 12:55:21;;;;;;;2.90;1.30;;;11.70;77.00;;;;;;5040207;28;20277;-73
2023/04/02 12:57:49;;;;;;;7.05;1.75;;;11.50;77.50;;;;;;5038486;28;20572;-74
2023/04/02 13:00:33;;;;;;;1.88;0.93;;;11.50;77.20;;;;;;5041528;28;20536;-72
2023/04/02 13:03:15;;;;;;;3.30;1.35;;;11.50;77.90;;;;;;5051453;28;20227;-74
2023/04/02 13:05:46;;;;;;;1.73;1.50;;;11.60;78.50;;;;;;5040691;28;20213;-74
2023/04/02 13:08:17;;;;;;;2.33;1.77;;;11.70;77.30;;;;;;5035202;28;20200;-73
2023/04/02 13:10:45;;;;;;;3.17;1.10;;;11.90;78.70;;;;;;5045357;28;20246;-74
2023/04/02 13:13:16;;;;;;;3.90;1.60;;;12.10;79.20;;;;;;5044764;28;20335;-73
2023/04/02 13:15:45;;;;;;;4.28;1.13;;;12.30;79.10;;;;;;5036901;28;20613;-74
2023/04/02 13:18:20;;;;;;;2.20;1.60;;;12.50;78.40;;;;;;5045842;28;20203;-74
2023/04/02 13:20:57;;;;;;;3.47;1.27;;;12.60;79.10;;;;;;5045533;28;20286;-74
2023/04/02 13:23:35;;;;;;;3.55;1.40;;;12.70;78.50;;;;;;5030611;28;20289;-74